sensor_id;sensor_type;location;lat;lon;timestamp;P1;durP1;ratioP1;P2;durP2;ratioP2
69401;SDS011;56589;51.992;5.924;2023-04-15T00:00:53;4.88;;;3.25;;
69401;SDS011;56589;51.992;5.924;2023-04-15T00:03:19;5.72;;;3.85;;
69401;SDS011;56589;51.992;5.924;2023-04-15T00:05:45;13.10;;;3.92;;
69401;SDS011;56589;51.992;5.924;2023-04-15T00:08:10;8.98;;;3.58;;
69401;SDS011;56589;51.992;5.924;2023-04-15T00:10:39;5.13;;;3.58;;
69401;SDS011;56589;51.992;5.924;2023-04-15T00:13:04;6.03;;;3.20;;
69401;SDS011;56589;51.992;5.924;2023-04-15T00:15:30;6.15;;;3.38;;
69401;SDS011;56589;51.992;5.924;2023-04-15T00:17:56;6.43;;;3.42;;
69401;SDS011;56589;51.992;5.924;2023-04-15T00:20:22;9.82;;;4.07;;
69401;SDS011;56589;51.992;5.924;2023-04-15T00:22:48;8.50;;;4.35;;
69401;SDS011;56589;51.992;5.924;2023-04-15T00:25:13;6.40;;;3.25;;
69401;SDS011;56589;51.992;5.924;2023-04-15T00:27:42;6.45;;;3.20;;
69401;SDS011;56589;51.992;5.924;2023-04-15T00:30:08;9.32;;;3.83;;
69401;SDS011;56589;51.992;5.924;2023-04-15T00:32:34;7.88;;;3.67;;
69401;SDS011;56589;51.992;5.924;2023-04-15T00:35:00;12.20;;;4.28;;
69401;SDS011;56589;51.992;5.924;2023-04-15T00:37:26;6.93;;;3.97;;
69401;SDS011;56589;51.992;5.924;2023-04-15T00:39:51;5.85;;;3.45;;
69401;SDS011;56589;51.992;5.924;2023-04-15T00:42:17;8.07;;;3.85;;
69401;SDS011;56589;51.992;5.924;2023-04-15T00:44:47;5.53;;;3.55;;
69401;SDS011;56589;51.992;5.924;2023-04-15T00:47:13;8.13;;;3.63;;
69401;SDS011;56589;51.992;5.924;2023-04-15T00:49:40;8.57;;;3.90;;
69401;SDS011;56589;51.992;5.924;2023-04-15T00:52:06;8.02;;;3.88;;
69401;SDS011;56589;51.992;5.924;2023-04-15T00:54:32;9.68;;;4.38;;
69401;SDS011;56589;51.992;5.924;2023-04-15T00:56:57;6.88;;;4.30;;
69401;SDS011;56589;51.992;5.924;2023-04-15T00:59:23;6.15;;;4.03;;
69401;SDS011;56589;51.992;5.924;2023-04-15T01:01:52;6.70;;;3.78;;
69401;SDS011;56589;51.992;5.924;2023-04-15T01:04:18;6.30;;;3.60;;
69401;SDS011;56589;51.992;5.924;2023-04-15T01:06:44;4.97;;;3.33;;
69401;SDS011;56589;51.992;5.924;2023-04-15T01:09:10;8.52;;;4.25;;
69401;SDS011;56589;51.992;5.924;2023-04-15T01:11:36;7.03;;;3.90;;
69401;SDS011;56589;51.992;5.924;2023-04-15T01:14:02;9.70;;;4.22;;
69401;SDS011;56589;51.992;5.924;2023-04-15T01:16:28;7.15;;;4.45;;
69401;SDS011;56589;51.992;5.924;2023-04-15T01:18:58;5.30;;;3.40;;
69401;SDS011;56589;51.992;5.924;2023-04-15T01:21:24;9.65;;;3.90;;
69401;SDS011;56589;51.992;5.924;2023-04-15T01:23:50;8.48;;;4.78;;
69401;SDS011;56589;51.992;5.924;2023-04-15T01:26:22;7.25;;;4.47;;
69401;SDS011;56589;51.992;5.924;2023-04-15T01:28:48;7.47;;;4.10;;
69401;SDS011;56589;51.992;5.924;2023-04-15T01:31:13;7.93;;;4.28;;
69401;SDS011;56589;51.992;5.924;2023-04-15T01:33:40;9.05;;;4.00;;
69401;SDS011;56589;51.992;5.924;2023-04-15T01:36:07;7.03;;;4.25;;
69401;SDS011;56589;51.992;5.924;2023-04-15T01:38:34;6.35;;;4.22;;
69401;SDS011;56589;51.992;5.924;2023-04-15T01:41:01;7.75;;;4.40;;
69401;SDS011;56589;51.992;5.924;2023-04-15T01:43:30;4.82;;;3.60;;
69401;SDS011;56589;51.992;5.924;2023-04-15T01:45:56;6.32;;;4.20;;
69401;SDS011;56589;51.992;5.924;2023-04-15T01:48:22;8.65;;;4.07;;
69401;SDS011;56589;51.992;5.924;2023-04-15T01:50:47;6.78;;;4.35;;
69401;SDS011;56589;51.992;5.924;2023-04-15T01:53:13;6.32;;;4.00;;
69401;SDS011;56589;51.992;5.924;2023-04-15T01:55:39;6.57;;;4.60;;
69401;SDS011;56589;51.992;5.924;2023-04-15T01:58:05;7.07;;;4.43;;
69401;SDS011;56589;51.992;5.924;2023-04-15T02:00:33;7.43;;;4.68;;
69401;SDS011;56589;51.992;5.924;2023-04-15T02:02:59;7.65;;;4.90;;
69401;SDS011;56589;51.992;5.924;2023-04-15T02:05:25;7.90;;;4.93;;
69401;SDS011;56589;51.992;5.924;2023-04-15T02:07:50;6.78;;;4.13;;
69401;SDS011;56589;51.992;5.924;2023-04-15T02:10:16;12.02;;;5.18;;
69401;SDS011;56589;51.992;5.924;2023-04-15T02:12:42;8.18;;;4.70;;
69401;SDS011;56589;51.992;5.924;2023-04-15T02:15:08;6.72;;;4.03;;
69401;SDS011;56589;51.992;5.924;2023-04-15T02:17:37;6.30;;;4.28;;
69401;SDS011;56589;51.992;5.924;2023-04-15T02:20:04;6.97;;;3.88;;
69401;SDS011;56589;51.992;5.924;2023-04-15T02:22:31;10.10;;;4.43;;
69401;SDS011;56589;51.992;5.924;2023-04-15T02:24:57;6.72;;;4.43;;
69401;SDS011;56589;51.992;5.924;2023-04-15T02:27:23;5.38;;;3.85;;
69401;SDS011;56589;51.992;5.924;2023-04-15T02:29:49;6.40;;;4.35;;
69401;SDS011;56589;51.992;5.924;2023-04-15T02:32:14;5.65;;;4.60;;
69401;SDS011;56589;51.992;5.924;2023-04-15T02:34:43;5.63;;;3.80;;
69401;SDS011;56589;51.992;5.924;2023-04-15T02:37:10;6.65;;;4.03;;
69401;SDS011;56589;51.992;5.924;2023-04-15T02:39:37;7.00;;;4.57;;
69401;SDS011;56589;51.992;5.924;2023-04-15T02:42:03;8.70;;;4.57;;
69401;SDS011;56589;51.992;5.924;2023-04-15T02:44:29;7.30;;;4.68;;
69401;SDS011;56589;51.992;5.924;2023-04-15T02:46:55;7.55;;;4.38;;
69401;SDS011;56589;51.992;5.924;2023-04-15T02:49:21;6.95;;;4.07;;
69401;SDS011;56589;51.992;5.924;2023-04-15T02:51:49;8.00;;;4.18;;
69401;SDS011;56589;51.992;5.924;2023-04-15T02:54:15;7.20;;;4.40;;
69401;SDS011;56589;51.992;5.924;2023-04-15T02:56:41;8.55;;;4.22;;
69401;SDS011;56589;51.992;5.924;2023-04-15T02:59:07;7.50;;;4.45;;
69401;SDS011;56589;51.992;5.924;2023-04-15T03:01:33;6.68;;;4.82;;
69401;SDS011;56589;51.992;5.924;2023-04-15T03:03:58;6.07;;;4.57;;
69401;SDS011;56589;51.992;5.924;2023-04-15T03:06:24;9.23;;;5.07;;
69401;SDS011;56589;51.992;5.924;2023-04-15T03:08:52;6.57;;;4.50;;
69401;SDS011;56589;51.992;5.924;2023-04-15T03:11:18;8.32;;;4.50;;
69401;SDS011;56589;51.992;5.924;2023-04-15T03:13:44;12.80;;;5.93;;
69401;SDS011;56589;51.992;5.924;2023-04-15T03:16:10;9.18;;;5.28;;
69401;SDS011;56589;51.992;5.924;2023-04-15T03:18:36;7.63;;;4.95;;
69401;SDS011;56589;51.992;5.924;2023-04-15T03:21:02;7.40;;;4.55;;
69401;SDS011;56589;51.992;5.924;2023-04-15T03:23:29;6.10;;;4.50;;
69401;SDS011;56589;51.992;5.924;2023-04-15T03:26:00;11.43;;;5.22;;
69401;SDS011;56589;51.992;5.924;2023-04-15T03:28:26;9.73;;;5.20;;
69401;SDS011;56589;51.992;5.924;2023-04-15T03:30:52;9.73;;;5.35;;
69401;SDS011;56589;51.992;5.924;2023-04-15T03:33:18;10.05;;;5.28;;
69401;SDS011;56589;51.992;5.924;2023-04-15T03:35:43;9.50;;;5.30;;
69401;SDS011;56589;51.992;5.924;2023-04-15T03:38:09;11.52;;;5.78;;
69401;SDS011;56589;51.992;5.924;2023-04-15T03:40:35;9.15;;;5.72;;
69401;SDS011;56589;51.992;5.924;2023-04-15T03:43:03;8.80;;;5.72;;
69401;SDS011;56589;51.992;5.924;2023-04-15T03:45:29;7.53;;;5.30;;
69401;SDS011;56589;51.992;5.924;2023-04-15T03:47:55;8.23;;;5.65;;
69401;SDS011;56589;51.992;5.924;2023-04-15T03:50:20;9.18;;;5.50;;
69401;SDS011;56589;51.992;5.924;2023-04-15T03:52:46;9.15;;;5.65;;
69401;SDS011;56589;51.992;5.924;2023-04-15T03:55:12;6.90;;;5.32;;
69401;SDS011;56589;51.992;5.924;2023-04-15T03:57:38;8.57;;;5.60;;
69401;SDS011;56589;51.992;5.924;2023-04-15T04:00:07;8.90;;;5.68;;
69401;SDS011;56589;51.992;5.924;2023-04-15T04:02:34;10.73;;;5.80;;
69401;SDS011;56589;51.992;5.924;2023-04-15T04:05:00;9.00;;;5.47;;
69401;SDS011;56589;51.992;5.924;2023-04-15T04:07:26;11.90;;;5.75;;
69401;SDS011;56589;51.992;5.924;2023-04-15T04:09:51;6.10;;;4.78;;
69401;SDS011;56589;51.992;5.924;2023-04-15T04:12:17;10.63;;;5.45;;
69401;SDS011;56589;51.992;5.924;2023-04-15T04:14:43;8.80;;;6.03;;
69401;SDS011;56589;51.992;5.924;2023-04-15T04:17:11;7.95;;;5.43;;
69401;SDS011;56589;51.992;5.924;2023-04-15T04:19:37;8.95;;;5.30;;
69401;SDS011;56589;51.992;5.924;2023-04-15T04:22:03;9.95;;;5.70;;
69401;SDS011;56589;51.992;5.924;2023-04-15T04:24:29;8.88;;;6.07;;
69401;SDS011;56589;51.992;5.924;2023-04-15T04:26:55;9.50;;;5.93;;
69401;SDS011;56589;51.992;5.924;2023-04-15T04:29:21;9.25;;;6.50;;
69401;SDS011;56589;51.992;5.924;2023-04-15T04:31:47;10.68;;;5.47;;
69401;SDS011;56589;51.992;5.924;2023-04-15T04:34:16;10.68;;;6.75;;
69401;SDS011;56589;51.992;5.924;2023-04-15T04:36:41;9.60;;;6.53;;
69401;SDS011;56589;51.992;5.924;2023-04-15T04:39:07;9.98;;;6.10;;
69401;SDS011;56589;51.992;5.924;2023-04-15T04:41:33;8.30;;;6.13;;
69401;SDS011;56589;51.992;5.924;2023-04-15T04:43:58;10.70;;;6.78;;
69401;SDS011;56589;51.992;5.924;2023-04-15T04:46:24;10.18;;;6.18;;
69401;SDS011;56589;51.992;5.924;2023-04-15T04:48:50;10.52;;;7.68;;
69401;SDS011;56589;51.992;5.924;2023-04-15T04:51:18;9.95;;;6.57;;
69401;SDS011;56589;51.992;5.924;2023-04-15T04:53:44;9.85;;;6.68;;
69401;SDS011;56589;51.992;5.924;2023-04-15T04:56:10;9.80;;;6.78;;
69401;SDS011;56589;51.992;5.924;2023-04-15T04:58:36;10.32;;;7.20;;
69401;SDS011;56589;51.992;5.924;2023-04-15T05:01:02;11.80;;;6.38;;
69401;SDS011;56589;51.992;5.924;2023-04-15T05:03:27;9.93;;;6.18;;
69401;SDS011;56589;51.992;5.924;2023-04-15T05:05:54;9.38;;;6.40;;
69401;SDS011;56589;51.992;5.924;2023-04-15T05:08:22;10.82;;;6.38;;
69401;SDS011;56589;51.992;5.924;2023-04-15T05:10:48;14.02;;;8.13;;
69401;SDS011;56589;51.992;5.924;2023-04-15T05:13:14;8.77;;;6.40;;
69401;SDS011;56589;51.992;5.924;2023-04-15T05:15:39;10.45;;;7.40;;
69401;SDS011;56589;51.992;5.924;2023-04-15T05:18:05;9.25;;;7.03;;
69401;SDS011;56589;51.992;5.924;2023-04-15T05:20:31;10.23;;;6.95;;
69401;SDS011;56589;51.992;5.924;2023-04-15T05:22:57;10.68;;;6.85;;
69401;SDS011;56589;51.992;5.924;2023-04-15T05:25:25;12.38;;;7.88;;
69401;SDS011;56589;51.992;5.924;2023-04-15T05:27:51;8.93;;;6.63;;
69401;SDS011;56589;51.992;5.924;2023-04-15T05:30:17;8.52;;;6.70;;
69401;SDS011;56589;51.992;5.924;2023-04-15T05:32:43;11.10;;;6.80;;
69401;SDS011;56589;51.992;5.924;2023-04-15T05:35:08;8.65;;;6.28;;
69401;SDS011;56589;51.992;5.924;2023-04-15T05:37:34;11.50;;;7.35;;
69401;SDS011;56589;51.992;5.924;2023-04-15T05:40:00;10.48;;;7.03;;
69401;SDS011;56589;51.992;5.924;2023-04-15T05:42:28;9.23;;;7.10;;
69401;SDS011;56589;51.992;5.924;2023-04-15T05:44:54;11.52;;;6.70;;
69401;SDS011;56589;51.992;5.924;2023-04-15T05:47:20;9.40;;;6.50;;
69401;SDS011;56589;51.992;5.924;2023-04-15T05:49:46;9.55;;;6.65;;
69401;SDS011;56589;51.992;5.924;2023-04-15T05:52:11;9.02;;;6.07;;
69401;SDS011;56589;51.992;5.924;2023-04-15T05:54:37;10.32;;;6.80;;
69401;SDS011;56589;51.992;5.924;2023-04-15T05:57:03;10.88;;;7.28;;
69401;SDS011;56589;51.992;5.924;2023-04-15T05:59:31;11.38;;;6.47;;
69401;SDS011;56589;51.992;5.924;2023-04-15T06:01:57;9.50;;;6.50;;
69401;SDS011;56589;51.992;5.924;2023-04-15T06:04:23;8.77;;;5.78;;
69401;SDS011;56589;51.992;5.924;2023-04-15T06:06:49;7.35;;;6.05;;
69401;SDS011;56589;51.992;5.924;2023-04-15T06:09:15;9.57;;;6.57;;
69401;SDS011;56589;51.992;5.924;2023-04-15T06:11:41;10.23;;;6.82;;
69401;SDS011;56589;51.992;5.924;2023-04-15T06:14:06;8.30;;;6.25;;
69401;SDS011;56589;51.992;5.924;2023-04-15T06:16:35;10.50;;;6.55;;
69401;SDS011;56589;51.992;5.924;2023-04-15T06:19:00;8.88;;;6.28;;
69401;SDS011;56589;51.992;5.924;2023-04-15T06:21:26;8.60;;;6.47;;
69401;SDS011;56589;51.992;5.924;2023-04-15T06:23:52;10.13;;;6.45;;
69401;SDS011;56589;51.992;5.924;2023-04-15T06:26:18;8.40;;;6.53;;
69401;SDS011;56589;51.992;5.924;2023-04-15T06:28:44;8.98;;;6.47;;
69401;SDS011;56589;51.992;5.924;2023-04-15T06:31:09;10.48;;;6.35;;
69401;SDS011;56589;51.992;5.924;2023-04-15T06:33:38;10.95;;;6.63;;
69401;SDS011;56589;51.992;5.924;2023-04-15T06:36:04;8.18;;;6.07;;
69401;SDS011;56589;51.992;5.924;2023-04-15T06:38:30;8.52;;;5.43;;
69401;SDS011;56589;51.992;5.924;2023-04-15T06:40:55;8.07;;;5.45;;
69401;SDS011;56589;51.992;5.924;2023-04-15T06:43:21;11.35;;;6.28;;
69401;SDS011;56589;51.992;5.924;2023-04-15T06:45:47;8.57;;;6.18;;
69401;SDS011;56589;51.992;5.924;2023-04-15T06:48:13;11.85;;;6.35;;
69401;SDS011;56589;51.992;5.924;2023-04-15T06:50:41;9.25;;;6.82;;
69401;SDS011;56589;51.992;5.924;2023-04-15T06:53:07;7.88;;;5.95;;
69401;SDS011;56589;51.992;5.924;2023-04-15T06:55:33;11.45;;;7.50;;
69401;SDS011;56589;51.992;5.924;2023-04-15T06:57:58;10.75;;;7.55;;
69401;SDS011;56589;51.992;5.924;2023-04-15T07:00:24;11.48;;;7.20;;
69401;SDS011;56589;51.992;5.924;2023-04-15T07:02:50;9.98;;;6.95;;
69401;SDS011;56589;51.992;5.924;2023-04-15T07:05:16;10.45;;;6.30;;
69401;SDS011;56589;51.992;5.924;2023-04-15T07:07:44;10.63;;;6.97;;
69401;SDS011;56589;51.992;5.924;2023-04-15T07:10:10;10.55;;;6.85;;
69401;SDS011;56589;51.992;5.924;2023-04-15T07:12:36;9.68;;;6.80;;
69401;SDS011;56589;51.992;5.924;2023-04-15T07:15:02;10.57;;;6.85;;
69401;SDS011;56589;51.992;5.924;2023-04-15T07:17:29;9.73;;;6.85;;
69401;SDS011;56589;51.992;5.924;2023-04-15T07:19:55;9.43;;;6.70;;
69401;SDS011;56589;51.992;5.924;2023-04-15T07:22:20;9.02;;;6.95;;
69401;SDS011;56589;51.992;5.924;2023-04-15T07:24:49;9.20;;;6.35;;
69401;SDS011;56589;51.992;5.924;2023-04-15T07:27:14;9.30;;;6.38;;
69401;SDS011;56589;51.992;5.924;2023-04-15T07:29:40;12.85;;;7.20;;
69401;SDS011;56589;51.992;5.924;2023-04-15T07:32:08;9.80;;;6.85;;
69401;SDS011;56589;51.992;5.924;2023-04-15T07:34:33;8.82;;;7.47;;
69401;SDS011;56589;51.992;5.924;2023-04-15T07:36:59;8.82;;;6.72;;
69401;SDS011;56589;51.992;5.924;2023-04-15T07:39:25;11.20;;;6.65;;
69401;SDS011;56589;51.992;5.924;2023-04-15T07:41:53;10.57;;;6.93;;
69401;SDS011;56589;51.992;5.924;2023-04-15T07:44:19;9.40;;;6.60;;
69401;SDS011;56589;51.992;5.924;2023-04-15T07:46:45;10.55;;;7.28;;
69401;SDS011;56589;51.992;5.924;2023-04-15T07:49:12;9.93;;;6.65;;
69401;SDS011;56589;51.992;5.924;2023-04-15T07:51:37;10.32;;;6.95;;
69401;SDS011;56589;51.992;5.924;2023-04-15T07:54:03;10.43;;;7.22;;
69401;SDS011;56589;51.992;5.924;2023-04-15T07:56:29;9.32;;;7.00;;
69401;SDS011;56589;51.992;5.924;2023-04-15T07:59:00;8.52;;;5.82;;
69401;SDS011;56589;51.992;5.924;2023-04-15T08:01:25;11.13;;;6.18;;
69401;SDS011;56589;51.992;5.924;2023-04-15T08:03:51;8.85;;;6.25;;
69401;SDS011;56589;51.992;5.924;2023-04-15T08:06:17;12.73;;;6.00;;
69401;SDS011;56589;51.992;5.924;2023-04-15T08:08:43;7.85;;;5.15;;
69401;SDS011;56589;51.992;5.924;2023-04-15T08:11:09;6.57;;;4.85;;
69401;SDS011;56589;51.992;5.924;2023-04-15T08:13:35;7.75;;;5.13;;
69401;SDS011;56589;51.992;5.924;2023-04-15T08:16:16;7.13;;;4.30;;
69401;SDS011;56589;51.992;5.924;2023-04-15T08:21:11;7.38;;;4.40;;
69401;SDS011;56589;51.992;5.924;2023-04-15T08:23:37;6.13;;;4.18;;
69401;SDS011;56589;51.992;5.924;2023-04-15T08:26:03;9.20;;;5.28;;
69401;SDS011;56589;51.992;5.924;2023-04-15T08:28:29;5.47;;;4.05;;
69401;SDS011;56589;51.992;5.924;2023-04-15T08:30:55;5.20;;;3.45;;
69401;SDS011;56589;51.992;5.924;2023-04-15T08:33:24;6.72;;;3.80;;
69401;SDS011;56589;51.992;5.924;2023-04-15T08:35:50;5.57;;;3.63;;
69401;SDS011;56589;51.992;5.924;2023-04-15T08:38:15;4.10;;;2.95;;
69401;SDS011;56589;51.992;5.924;2023-04-15T08:40:42;5.22;;;3.15;;
69401;SDS011;56589;51.992;5.924;2023-04-15T08:43:10;4.57;;;3.08;;
69401;SDS011;56589;51.992;5.924;2023-04-15T08:45:42;6.50;;;3.75;;
69401;SDS011;56589;51.992;5.924;2023-04-15T08:48:10;5.22;;;3.35;;
69401;SDS011;56589;51.992;5.924;2023-04-15T08:50:42;5.90;;;3.40;;
69401;SDS011;56589;51.992;5.924;2023-04-15T08:53:08;4.70;;;3.47;;
69401;SDS011;56589;51.992;5.924;2023-04-15T08:55:35;4.43;;;3.13;;
69401;SDS011;56589;51.992;5.924;2023-04-15T08:58:08;4.90;;;3.57;;
69401;SDS011;56589;51.992;5.924;2023-04-15T09:00:34;3.83;;;2.75;;
69401;SDS011;56589;51.992;5.924;2023-04-15T09:03:00;3.95;;;3.00;;
69401;SDS011;56589;51.992;5.924;2023-04-15T09:05:26;5.65;;;3.35;;
69401;SDS011;56589;51.992;5.924;2023-04-15T09:07:59;5.88;;;3.55;;
69401;SDS011;56589;51.992;5.924;2023-04-15T09:10:25;4.35;;;3.28;;
69401;SDS011;56589;51.992;5.924;2023-04-15T09:12:51;6.40;;;3.30;;
69401;SDS011;56589;51.992;5.924;2023-04-15T09:15:17;6.78;;;3.33;;
69401;SDS011;56589;51.992;5.924;2023-04-15T09:17:44;4.75;;;3.42;;
69401;SDS011;56589;51.992;5.924;2023-04-15T09:20:10;3.90;;;3.25;;
69401;SDS011;56589;51.992;5.924;2023-04-15T09:22:39;5.03;;;3.30;;
69401;SDS011;56589;51.992;5.924;2023-04-15T09:25:19;5.65;;;3.22;;
69401;SDS011;56589;51.992;5.924;2023-04-15T09:27:51;5.30;;;3.70;;
69401;SDS011;56589;51.992;5.924;2023-04-15T09:30:19;9.55;;;4.60;;
69401;SDS011;56589;51.992;5.924;2023-04-15T09:32:48;5.95;;;3.80;;
69401;SDS011;56589;51.992;5.924;2023-04-15T09:35:14;6.70;;;3.88;;
69401;SDS011;56589;51.992;5.924;2023-04-15T09:37:40;5.82;;;3.50;;
69401;SDS011;56589;51.992;5.924;2023-04-15T09:40:07;4.22;;;3.25;;
69401;SDS011;56589;51.992;5.924;2023-04-15T09:42:36;5.22;;;3.45;;
69401;SDS011;56589;51.992;5.924;2023-04-15T09:45:19;5.22;;;3.22;;
69401;SDS011;56589;51.992;5.924;2023-04-15T09:47:46;4.47;;;3.72;;
69401;SDS011;56589;51.992;5.924;2023-04-15T09:50:12;4.78;;;3.40;;
69401;SDS011;56589;51.992;5.924;2023-04-15T09:52:40;4.07;;;3.22;;
69401;SDS011;56589;51.992;5.924;2023-04-15T09:55:07;4.32;;;2.97;;
69401;SDS011;56589;51.992;5.924;2023-04-15T09:57:37;5.05;;;2.97;;
69401;SDS011;56589;51.992;5.924;2023-04-15T10:00:05;4.30;;;3.20;;
69401;SDS011;56589;51.992;5.924;2023-04-15T10:02:33;4.15;;;2.80;;
69401;SDS011;56589;51.992;5.924;2023-04-15T10:05:00;3.90;;;2.50;;
69401;SDS011;56589;51.992;5.924;2023-04-15T10:07:26;4.30;;;3.00;;
69401;SDS011;56589;51.992;5.924;2023-04-15T10:09:53;4.95;;;3.20;;
69401;SDS011;56589;51.992;5.924;2023-04-15T10:12:20;5.70;;;3.40;;
69401;SDS011;56589;51.992;5.924;2023-04-15T10:14:51;5.13;;;3.42;;
69401;SDS011;56589;51.992;5.924;2023-04-15T10:17:22;6.88;;;3.50;;
69401;SDS011;56589;51.992;5.924;2023-04-15T10:19:52;5.03;;;2.83;;
69401;SDS011;56589;51.992;5.924;2023-04-15T10:22:19;4.10;;;3.00;;
69401;SDS011;56589;51.992;5.924;2023-04-15T10:24:46;3.97;;;2.65;;
69401;SDS011;56589;51.992;5.924;2023-04-15T10:27:15;4.75;;;3.03;;
69401;SDS011;56589;51.992;5.924;2023-04-15T10:29:42;4.18;;;2.67;;
69401;SDS011;56589;51.992;5.924;2023-04-15T10:32:11;3.17;;;2.42;;
69401;SDS011;56589;51.992;5.924;2023-04-15T10:34:38;3.75;;;2.92;;
69401;SDS011;56589;51.992;5.924;2023-04-15T10:37:08;3.90;;;2.63;;
69401;SDS011;56589;51.992;5.924;2023-04-15T10:39:37;5.13;;;2.47;;
69401;SDS011;56589;51.992;5.924;2023-04-15T10:42:10;3.85;;;2.63;;
69401;SDS011;56589;51.992;5.924;2023-04-15T10:44:38;6.13;;;2.90;;
69401;SDS011;56589;51.992;5.924;2023-04-15T10:47:13;3.22;;;2.33;;
69401;SDS011;56589;51.992;5.924;2023-04-15T10:49:42;3.25;;;2.20;;
69401;SDS011;56589;51.992;5.924;2023-04-15T10:52:09;4.40;;;2.30;;
69401;SDS011;56589;51.992;5.924;2023-04-15T10:54:35;4.82;;;2.78;;
69401;SDS011;56589;51.992;5.924;2023-04-15T10:57:08;3.65;;;2.65;;
69401;SDS011;56589;51.992;5.924;2023-04-15T11:02:41;5.38;;;2.63;;
69401;SDS011;56589;51.992;5.924;2023-04-15T11:05:10;4.13;;;2.80;;
69401;SDS011;56589;51.992;5.924;2023-04-15T11:07:37;3.95;;;2.70;;
69401;SDS011;56589;51.992;5.924;2023-04-15T11:13:16;4.13;;;2.55;;
69401;SDS011;56589;51.992;5.924;2023-04-15T11:15:45;3.75;;;2.50;;
69401;SDS011;56589;51.992;5.924;2023-04-15T11:18:16;4.65;;;3.10;;
69401;SDS011;56589;51.992;5.924;2023-04-15T11:20:46;3.42;;;2.20;;
69401;SDS011;56589;51.992;5.924;2023-04-15T11:23:14;4.13;;;2.05;;
69401;SDS011;56589;51.992;5.924;2023-04-15T11:25:42;4.22;;;2.08;;
69401;SDS011;56589;51.992;5.924;2023-04-15T11:28:09;5.60;;;1.92;;
69401;SDS011;56589;51.992;5.924;2023-04-15T11:30:36;3.28;;;1.98;;
69401;SDS011;56589;51.992;5.924;2023-04-15T11:33:04;3.88;;;1.63;;
69401;SDS011;56589;51.992;5.924;2023-04-15T11:35:35;4.20;;;1.60;;
69401;SDS011;56589;51.992;5.924;2023-04-15T11:38:01;3.47;;;2.13;;
69401;SDS011;56589;51.992;5.924;2023-04-15T11:40:28;4.75;;;1.80;;
69401;SDS011;56589;51.992;5.924;2023-04-15T11:43:05;4.43;;;1.88;;
69401;SDS011;56589;51.992;5.924;2023-04-15T11:45:32;3.00;;;1.60;;
69401;SDS011;56589;51.992;5.924;2023-04-15T11:48:05;3.53;;;1.50;;
69401;SDS011;56589;51.992;5.924;2023-04-15T11:50:35;1.40;;;1.05;;
69401;SDS011;56589;51.992;5.924;2023-04-15T11:53:03;3.40;;;1.48;;
69401;SDS011;56589;51.992;5.924;2023-04-15T11:55:30;1.98;;;1.15;;
69401;SDS011;56589;51.992;5.924;2023-04-15T11:58:07;2.90;;;1.10;;
69401;SDS011;56589;51.992;5.924;2023-04-15T12:00:35;2.28;;;1.25;;
69401;SDS011;56589;51.992;5.924;2023-04-15T12:03:12;1.35;;;1.20;;
69401;SDS011;56589;51.992;5.924;2023-04-15T12:11:31;1.80;;;1.23;;
69401;SDS011;56589;51.992;5.924;2023-04-15T12:14:04;4.28;;;1.23;;
69401;SDS011;56589;51.992;5.924;2023-04-15T12:16:34;1.77;;;1.10;;
69401;SDS011;56589;51.992;5.924;2023-04-15T12:19:04;2.53;;;1.10;;
69401;SDS011;56589;51.992;5.924;2023-04-15T12:21:37;1.40;;;1.02;;
69401;SDS011;56589;51.992;5.924;2023-04-15T12:24:05;5.38;;;1.20;;
69401;SDS011;56589;51.992;5.924;2023-04-15T12:26:34;1.95;;;1.05;;
69401;SDS011;56589;51.992;5.924;2023-04-15T12:29:02;2.95;;;1.20;;
69401;SDS011;56589;51.992;5.924;2023-04-15T12:31:30;2.05;;;1.00;;
69401;SDS011;56589;51.992;5.924;2023-04-15T12:33:56;1.67;;;0.82;;
69401;SDS011;56589;51.992;5.924;2023-04-15T12:36:26;1.20;;;0.80;;
69401;SDS011;56589;51.992;5.924;2023-04-15T12:38:55;2.13;;;1.10;;
69401;SDS011;56589;51.992;5.924;2023-04-15T12:41:21;2.30;;;1.05;;
69401;SDS011;56589;51.992;5.924;2023-04-15T12:43:47;2.38;;;1.30;;
69401;SDS011;56589;51.992;5.924;2023-04-15T12:46:13;2.00;;;0.98;;
69401;SDS011;56589;51.992;5.924;2023-04-15T12:48:39;3.20;;;1.23;;
69401;SDS011;56589;51.992;5.924;2023-04-15T12:51:05;1.63;;;1.30;;
69401;SDS011;56589;51.992;5.924;2023-04-15T12:53:31;2.08;;;1.08;;
69401;SDS011;56589;51.992;5.924;2023-04-15T12:55:59;1.55;;;1.00;;
69401;SDS011;56589;51.992;5.924;2023-04-15T12:58:25;1.73;;;1.08;;
69401;SDS011;56589;51.992;5.924;2023-04-15T13:00:50;2.22;;;1.40;;
69401;SDS011;56589;51.992;5.924;2023-04-15T13:03:16;3.15;;;0.90;;
69401;SDS011;56589;51.992;5.924;2023-04-15T13:05:42;3.13;;;1.65;;
69401;SDS011;56589;51.992;5.924;2023-04-15T13:08:08;1.48;;;1.10;;
69401;SDS011;56589;51.992;5.924;2023-04-15T13:10:34;2.53;;;0.80;;
69401;SDS011;56589;51.992;5.924;2023-04-15T13:13:03;5.65;;;1.92;;
69401;SDS011;56589;51.992;5.924;2023-04-15T13:15:29;1.27;;;0.85;;
69401;SDS011;56589;51.992;5.924;2023-04-15T13:17:55;2.75;;;0.90;;
69401;SDS011;56589;51.992;5.924;2023-04-15T13:20:21;3.47;;;0.90;;
69401;SDS011;56589;51.992;5.924;2023-04-15T13:22:48;2.17;;;0.75;;
69401;SDS011;56589;51.992;5.924;2023-04-15T13:25:14;3.42;;;1.20;;
69401;SDS011;56589;51.992;5.924;2023-04-15T13:27:39;1.55;;;0.60;;
69401;SDS011;56589;51.992;5.924;2023-04-15T13:30:08;1.48;;;0.68;;
69401;SDS011;56589;51.992;5.924;2023-04-15T13:32:34;1.58;;;0.47;;
69401;SDS011;56589;51.992;5.924;2023-04-15T13:35:00;0.80;;;0.60;;
69401;SDS011;56589;51.992;5.924;2023-04-15T13:37:26;1.08;;;0.52;;
69401;SDS011;56589;51.992;5.924;2023-04-15T13:39:53;1.25;;;0.60;;
69401;SDS011;56589;51.992;5.924;2023-04-15T13:42:19;1.90;;;0.60;;
69401;SDS011;56589;51.992;5.924;2023-04-15T13:44:45;1.73;;;0.52;;
69401;SDS011;56589;51.992;5.924;2023-04-15T13:47:14;2.92;;;0.60;;
69401;SDS011;56589;51.992;5.924;2023-04-15T13:49:39;3.15;;;0.90;;
69401;SDS011;56589;51.992;5.924;2023-04-15T13:52:05;0.90;;;0.60;;
69401;SDS011;56589;51.992;5.924;2023-04-15T13:54:31;1.48;;;0.60;;
69401;SDS011;56589;51.992;5.924;2023-04-15T13:56:57;1.02;;;0.63;;
69401;SDS011;56589;51.992;5.924;2023-04-15T13:59:23;5.63;;;0.60;;
69401;SDS011;56589;51.992;5.924;2023-04-15T14:01:49;1.45;;;0.80;;
69401;SDS011;56589;51.992;5.924;2023-04-15T14:04:17;1.00;;;0.65;;
69401;SDS011;56589;51.992;5.924;2023-04-15T14:06:43;1.95;;;0.55;;
69401;SDS011;56589;51.992;5.924;2023-04-15T14:09:09;2.05;;;0.80;;
69401;SDS011;56589;51.992;5.924;2023-04-15T14:11:36;2.38;;;0.60;;
69401;SDS011;56589;51.992;5.924;2023-04-15T14:14:03;1.80;;;0.50;;
69401;SDS011;56589;51.992;5.924;2023-04-15T14:16:30;2.08;;;0.60;;
69401;SDS011;56589;51.992;5.924;2023-04-15T14:18:57;1.85;;;0.88;;
69401;SDS011;56589;51.992;5.924;2023-04-15T14:21:25;3.13;;;0.80;;
69401;SDS011;56589;51.992;5.924;2023-04-15T14:23:51;1.10;;;0.70;;
69401;SDS011;56589;51.992;5.924;2023-04-15T14:26:17;2.08;;;0.70;;
69401;SDS011;56589;51.992;5.924;2023-04-15T14:28:43;2.05;;;0.57;;
69401;SDS011;56589;51.992;5.924;2023-04-15T14:31:09;1.52;;;0.80;;
69401;SDS011;56589;51.992;5.924;2023-04-15T14:33:35;1.80;;;0.60;;
69401;SDS011;56589;51.992;5.924;2023-04-15T14:36:01;3.13;;;1.20;;
69401;SDS011;56589;51.992;5.924;2023-04-15T14:38:29;4.15;;;0.82;;
69401;SDS011;56589;51.992;5.924;2023-04-15T14:40:55;3.60;;;1.10;;
69401;SDS011;56589;51.992;5.924;2023-04-15T14:43:22;1.92;;;0.90;;
69401;SDS011;56589;51.992;5.924;2023-04-15T14:45:47;2.67;;;1.08;;
69401;SDS011;56589;51.992;5.924;2023-04-15T14:48:13;2.83;;;0.77;;
69401;SDS011;56589;51.992;5.924;2023-04-15T14:50:40;2.70;;;1.00;;
69401;SDS011;56589;51.992;5.924;2023-04-15T14:53:05;2.67;;;0.90;;
69401;SDS011;56589;51.992;5.924;2023-04-15T14:55:34;2.38;;;0.98;;
69401;SDS011;56589;51.992;5.924;2023-04-15T14:57:59;5.13;;;1.02;;